sim
Sign-in with your pilot id or email,
or register
Callsign
Passwort

Schedule Details

Flight Number: OEO5695
Departure: Paderborn Lippstadt Airport (EDLP) at 04:25
Arrival: Fuerteventura Airport (GCFV) at 09:20

Weather Information
Getting current METAR information for EDLP 211550Z 26007KT 220V310 9999 BKN041 10/04 Q1026
Getting current METAR information for GCFV 211530Z 07005KT 020V110 CAVOK 20/14 Q1020

Schedule Frequency

Route Map